createdAt,value
2022-10-23T00:02:10.938Z,0.32
2022-10-23T00:04:38.227Z,0.30
2022-10-23T00:07:05.464Z,0.30
2022-10-23T00:09:32.668Z,0.20
2022-10-23T00:11:59.926Z,0.20
2022-10-23T00:14:27.158Z,0.40
2022-10-23T00:16:54.476Z,0.30
2022-10-23T00:19:21.672Z,0.40
2022-10-23T00:21:48.912Z,0.30
2022-10-23T00:24:16.195Z,0.30
2022-10-23T00:26:43.483Z,0.40
2022-10-23T00:29:10.935Z,0.30
2022-10-23T00:31:38.408Z,0.17
2022-10-23T00:34:08.431Z,0.30
2022-10-23T00:36:36.093Z,0.30
2022-10-23T00:39:03.441Z,0.40
2022-10-23T00:41:32.593Z,0.30
2022-10-23T00:44:02.155Z,0.40
2022-10-23T00:46:29.574Z,0.30
2022-10-23T00:49:00.286Z,0.20
2022-10-23T00:51:29.894Z,0.32
2022-10-23T00:54:06.505Z,0.25
2022-10-23T00:56:41.228Z,0.20
2022-10-23T00:59:08.541Z,0.30
2022-10-23T01:01:35.992Z,0.20
2022-10-23T01:04:04.348Z,0.20
2022-10-23T01:06:38.663Z,0.20
2022-10-23T01:09:17.985Z,0.22
2022-10-23T01:11:58.941Z,0.32
2022-10-23T01:14:46.317Z,0.40
2022-10-23T01:17:17.913Z,0.30
2022-10-23T01:19:51.131Z,0.40
2022-10-23T01:22:27.423Z,0.20
2022-10-23T01:24:59.000Z,0.20
2022-10-23T01:27:28.505Z,0.30
2022-10-23T01:30:01.847Z,0.22
2022-10-23T01:32:34.991Z,0.35
2022-10-23T01:35:02.160Z,0.30
2022-10-23T01:37:32.965Z,0.35
2022-10-23T01:40:03.040Z,0.38
2022-10-23T01:42:31.961Z,0.32
2022-10-23T01:45:04.752Z,0.30
2022-10-23T01:47:33.762Z,0.30
2022-10-23T01:50:01.961Z,0.20
2022-10-23T01:52:29.229Z,0.20
2022-10-23T01:54:58.920Z,0.28
2022-10-23T01:57:27.289Z,0.40
2022-10-23T01:59:57.183Z,0.20
2022-10-23T02:02:25.635Z,0.25
2022-10-23T02:04:55.996Z,0.30
2022-10-23T02:07:23.818Z,0.50
2022-10-23T02:09:51.196Z,0.30
2022-10-23T02:15:01.888Z,0.30
2022-10-23T02:17:47.461Z,0.30
2022-10-23T02:23:21.633Z,0.50
2022-10-23T02:25:51.962Z,0.50
2022-10-23T02:28:21.214Z,0.40
2022-10-23T02:30:50.937Z,0.20
2022-10-23T02:33:18.857Z,0.32
2022-10-23T02:35:47.362Z,0.30
2022-10-23T02:38:29.894Z,0.30
2022-10-23T02:41:00.091Z,0.40
2022-10-23T02:43:37.723Z,0.28
2022-10-23T02:46:16.555Z,0.30
2022-10-23T02:48:49.856Z,0.40
2022-10-23T02:51:22.837Z,0.50
2022-10-23T02:56:38.504Z,0.73
2022-10-23T02:59:14.985Z,0.40
2022-10-23T03:02:08.754Z,0.52
2022-10-23T03:04:37.681Z,0.40
2022-10-23T03:07:04.944Z,0.38
2022-10-23T03:09:32.139Z,0.40
2022-10-23T03:11:59.531Z,0.30
2022-10-23T03:14:26.777Z,0.50
2022-10-23T03:16:53.994Z,0.20
2022-10-23T03:19:21.268Z,0.40
2022-10-23T03:21:48.473Z,0.20
2022-10-23T03:24:15.800Z,0.30
2022-10-23T03:26:43.048Z,0.30
2022-10-23T03:29:10.259Z,0.60
2022-10-23T03:31:37.504Z,0.30
2022-10-23T03:34:10.088Z,0.30
2022-10-23T03:36:37.509Z,0.30
2022-10-23T03:39:04.841Z,0.47
2022-10-23T03:41:32.160Z,0.40
2022-10-23T03:43:59.427Z,0.30
2022-10-23T03:46:26.719Z,0.40
2022-10-23T03:48:54.787Z,0.40
2022-10-23T03:51:22.079Z,0.22
2022-10-23T03:53:49.352Z,0.43
2022-10-23T03:56:16.822Z,0.50
2022-10-23T03:58:44.132Z,0.60
2022-10-23T04:01:11.426Z,0.30
2022-10-23T04:03:38.724Z,0.50
2022-10-23T04:06:06.187Z,0.30
2022-10-23T04:08:33.436Z,0.40
2022-10-23T04:11:00.850Z,0.30
2022-10-23T04:13:28.038Z,0.40
2022-10-23T04:15:55.243Z,0.30
2022-10-23T04:18:22.458Z,0.28
2022-10-23T04:20:49.712Z,0.30
2022-10-23T04:23:17.168Z,0.40
2022-10-23T04:25:44.484Z,0.47
2022-10-23T04:28:11.752Z,0.35
2022-10-23T04:30:39.000Z,0.40
2022-10-23T04:33:06.385Z,0.32
2022-10-23T04:35:33.587Z,0.40
2022-10-23T04:38:00.788Z,0.40
2022-10-23T04:40:28.125Z,0.30
2022-10-23T04:42:55.338Z,0.40
2022-10-23T04:45:22.586Z,0.30
2022-10-23T04:47:49.871Z,0.20
2022-10-23T04:50:17.298Z,0.52
2022-10-23T04:52:44.812Z,0.50
2022-10-23T04:55:12.114Z,0.50
2022-10-23T04:57:39.347Z,0.40
2022-10-23T05:00:07.494Z,0.20
2022-10-23T05:02:34.903Z,0.30
2022-10-23T05:05:02.139Z,0.40
2022-10-23T05:07:29.321Z,0.40
2022-10-23T05:09:56.556Z,0.40
2022-10-23T05:12:25.532Z,0.60
2022-10-23T05:14:52.924Z,0.40
2022-10-23T05:17:22.394Z,0.43
2022-10-23T05:19:52.272Z,0.30
2022-10-23T05:22:20.151Z,0.45
2022-10-23T05:24:50.453Z,0.30
2022-10-23T05:27:18.059Z,0.30
2022-10-23T05:29:45.312Z,0.38
2022-10-23T05:32:15.266Z,0.30
2022-10-23T05:34:43.451Z,0.30
2022-10-23T05:37:12.442Z,0.43
2022-10-23T05:39:39.715Z,0.40
2022-10-23T05:42:06.941Z,0.28
2022-10-23T05:44:34.199Z,0.30
2022-10-23T05:47:01.384Z,0.40
2022-10-23T05:49:28.665Z,0.30
2022-10-23T05:51:55.877Z,0.30
2022-10-23T05:54:23.103Z,0.40
2022-10-23T05:56:50.344Z,0.40
2022-10-23T05:59:20.472Z,0.50
2022-10-23T06:01:50.234Z,0.40
2022-10-23T06:04:17.665Z,0.38
2022-10-23T06:06:46.585Z,0.40
2022-10-23T06:09:14.980Z,0.30
2022-10-23T06:11:42.706Z,0.30
2022-10-23T06:14:09.983Z,0.30
2022-10-23T06:16:37.223Z,0.40
2022-10-23T06:19:04.498Z,0.32
2022-10-23T06:21:31.703Z,0.30
2022-10-23T06:23:58.892Z,0.20
2022-10-23T06:26:27.084Z,0.20
2022-10-23T06:28:54.356Z,0.40
2022-10-23T06:31:26.526Z,0.40
2022-10-23T06:33:54.009Z,0.50
2022-10-23T06:36:21.230Z,0.70
2022-10-23T06:38:49.679Z,0.63
2022-10-23T06:41:18.882Z,0.52
2022-10-23T06:43:48.500Z,0.40
2022-10-23T06:46:16.041Z,0.40
2022-10-23T06:48:43.949Z,0.47
2022-10-23T06:51:12.296Z,0.40
2022-10-23T06:53:39.895Z,0.20
2022-10-23T06:56:08.660Z,0.20
2022-10-23T06:58:36.365Z,0.30
2022-10-23T07:01:08.751Z,0.30
2022-10-23T07:03:36.278Z,0.50
2022-10-23T07:06:05.025Z,0.40
2022-10-23T07:08:32.440Z,0.40
2022-10-23T07:11:03.261Z,0.40
2022-10-23T07:13:30.444Z,0.30
2022-10-23T07:15:57.765Z,0.30
2022-10-23T07:18:25.128Z,0.40
2022-10-23T07:20:58.193Z,0.30
2022-10-23T07:23:25.451Z,0.32
2022-10-23T07:25:52.852Z,0.40
2022-10-23T07:28:20.185Z,0.30
2022-10-23T07:30:56.542Z,0.30
2022-10-23T07:33:23.972Z,0.40
2022-10-23T07:35:51.213Z,0.40
2022-10-23T07:38:18.440Z,0.50
2022-10-23T07:40:45.852Z,0.40
2022-10-23T07:43:13.081Z,0.28
2022-10-23T07:45:40.473Z,0.38
2022-10-23T07:48:07.659Z,0.32
2022-10-23T07:50:34.938Z,0.40
2022-10-23T07:53:02.132Z,0.40
2022-10-23T07:55:29.348Z,0.40
2022-10-23T07:57:56.622Z,0.40
2022-10-23T08:02:51.964Z,0.52
2022-10-23T08:05:21.961Z,0.50
2022-10-23T08:07:49.171Z,1.00
2022-10-23T08:10:16.457Z,0.85
2022-10-23T08:12:43.852Z,0.88
2022-10-23T08:15:11.294Z,0.73
2022-10-23T08:17:39.273Z,0.70
2022-10-23T08:20:06.798Z,1.00
2022-10-23T08:22:36.850Z,0.70
2022-10-23T08:25:04.177Z,0.60
2022-10-23T08:27:31.399Z,0.60
2022-10-23T08:29:58.601Z,0.60
2022-10-23T08:32:29.423Z,0.68
2022-10-23T08:34:56.676Z,0.60
2022-10-23T08:37:24.148Z,0.50
2022-10-23T08:39:53.287Z,0.70
2022-10-23T08:42:22.396Z,0.70
2022-10-23T08:45:08.166Z,0.70
2022-10-23T08:47:42.977Z,0.70
2022-10-23T08:50:13.272Z,0.57
2022-10-23T08:52:42.734Z,0.60
2022-10-23T08:55:16.290Z,0.70
2022-10-23T08:57:50.616Z,0.50
2022-10-23T09:00:18.717Z,0.50
2022-10-23T09:02:47.617Z,0.60
2022-10-23T09:05:33.075Z,0.70
2022-10-23T09:08:06.288Z,0.60
2022-10-23T09:10:36.662Z,0.63
2022-10-23T09:13:21.557Z,0.80
2022-10-23T09:15:51.253Z,0.63
2022-10-23T09:18:18.519Z,0.70
2022-10-23T09:20:47.034Z,1.00
2022-10-23T09:23:22.328Z,1.40
2022-10-23T09:25:55.425Z,1.77
2022-10-23T09:28:24.301Z,1.85
2022-10-23T09:30:52.288Z,1.30
2022-10-23T09:33:22.436Z,1.20
2022-10-23T09:36:00.135Z,1.05
2022-10-23T09:38:35.182Z,0.98
2022-10-23T09:41:17.499Z,1.10
2022-10-23T09:43:44.739Z,1.08
2022-10-23T09:46:12.190Z,1.50
2022-10-23T09:48:42.378Z,1.40
2022-10-23T09:51:15.940Z,1.40
2022-10-23T09:53:51.089Z,1.00
2022-10-23T09:56:25.892Z,0.75
2022-10-23T09:59:04.995Z,0.60
2022-10-23T10:01:33.850Z,0.60
2022-10-23T10:04:01.598Z,0.80
2022-10-23T10:06:31.120Z,0.88
2022-10-23T10:09:00.368Z,1.65
2022-10-23T10:11:27.780Z,1.27
2022-10-23T10:14:15.276Z,1.25
2022-10-23T10:16:42.509Z,1.20
2022-10-23T10:19:13.360Z,1.60
2022-10-23T10:21:53.599Z,1.20
2022-10-23T10:24:29.876Z,1.15
2022-10-23T10:27:04.197Z,0.85
2022-10-23T10:29:51.692Z,0.90
2022-10-23T10:32:18.903Z,1.05
2022-10-23T10:34:54.435Z,1.08
2022-10-23T10:37:35.531Z,0.70
2022-10-23T10:40:02.712Z,0.82
2022-10-23T10:42:29.921Z,0.70
2022-10-23T10:45:01.547Z,1.10
2022-10-23T10:47:41.297Z,1.08
2022-10-23T10:50:08.763Z,1.33
2022-10-23T10:52:49.393Z,1.30
2022-10-23T10:55:16.677Z,1.20
2022-10-23T10:57:59.192Z,1.80
2022-10-23T11:00:29.391Z,1.30
2022-10-23T11:03:14.044Z,1.02
2022-10-23T11:05:46.174Z,1.38
2022-10-23T11:08:13.824Z,1.58
2022-10-23T11:10:44.356Z,1.60
2022-10-23T11:13:28.192Z,1.10
2022-10-23T11:16:02.529Z,1.85
2022-10-23T11:18:31.654Z,2.10
2022-10-23T11:20:58.858Z,1.70
2022-10-23T11:23:29.220Z,2.20
2022-10-23T11:26:02.219Z,2.22
2022-10-23T11:29:04.760Z,2.40
2022-10-23T11:31:39.474Z,1.90
2022-10-23T11:34:25.327Z,1.70
2022-10-23T11:37:01.728Z,1.92
2022-10-23T11:39:30.774Z,1.45
2022-10-23T11:41:59.611Z,1.27
2022-10-23T11:44:47.092Z,0.90
2022-10-23T11:47:38.939Z,0.98
2022-10-23T11:50:09.495Z,1.00
2022-10-23T11:52:45.582Z,0.80
2022-10-23T11:55:19.708Z,0.60
2022-10-23T11:58:20.467Z,0.70
2022-10-23T12:00:56.967Z,0.68
2022-10-23T12:03:33.075Z,0.60
2022-10-23T12:06:03.319Z,0.65
2022-10-23T12:08:31.685Z,0.68
2022-10-23T12:10:59.007Z,0.70
2022-10-23T12:13:45.126Z,0.57
2022-10-23T12:16:12.825Z,0.60
2022-10-23T12:18:47.762Z,0.70
2022-10-23T12:21:20.450Z,0.70
2022-10-23T12:23:53.989Z,0.60
2022-10-23T12:26:21.246Z,0.73
2022-10-23T12:29:07.447Z,0.43
2022-10-23T12:31:34.825Z,0.50
2022-10-23T12:34:19.555Z,0.50
2022-10-23T12:36:55.912Z,0.50
2022-10-23T12:39:29.984Z,0.55
2022-10-23T12:41:57.534Z,0.70
2022-10-23T12:44:27.957Z,0.65
2022-10-23T12:46:57.169Z,0.70
2022-10-23T12:49:25.654Z,0.52
2022-10-23T12:52:06.063Z,0.60
2022-10-23T12:54:34.349Z,0.60
2022-10-23T12:57:01.741Z,0.50
2022-10-23T12:59:37.615Z,0.60
2022-10-23T13:02:22.741Z,0.60
2022-10-23T13:04:50.885Z,0.60
2022-10-23T13:07:19.734Z,0.40
2022-10-23T13:09:47.527Z,0.65
2022-10-23T13:12:33.442Z,0.70
2022-10-23T13:15:03.529Z,0.45
2022-10-23T13:17:53.928Z,0.60
2022-10-23T13:20:23.557Z,0.50
2022-10-23T13:23:14.206Z,0.52
2022-10-23T13:25:41.433Z,0.40
2022-10-23T13:28:08.850Z,0.50
2022-10-23T13:30:42.065Z,0.40
2022-10-23T13:33:15.490Z,0.45
2022-10-23T13:35:43.761Z,0.50
2022-10-23T13:38:11.427Z,0.40
2022-10-23T13:40:38.834Z,0.50
2022-10-23T13:43:14.171Z,0.50
2022-10-23T13:45:42.263Z,0.60
2022-10-23T13:48:13.657Z,0.73
2022-10-23T13:50:41.036Z,0.50
2022-10-23T13:53:12.264Z,0.70
2022-10-23T13:55:40.528Z,0.60
2022-10-23T13:58:07.783Z,0.75
2022-10-23T14:00:35.064Z,0.50
2022-10-23T14:03:02.293Z,0.60
2022-10-23T14:05:29.695Z,0.50
2022-10-23T14:07:56.932Z,0.50
2022-10-23T14:10:26.928Z,0.50
2022-10-23T14:12:55.270Z,0.43
2022-10-23T14:15:22.865Z,0.70
2022-10-23T14:17:50.154Z,0.55
2022-10-23T14:20:19.062Z,0.60
2022-10-23T14:22:46.927Z,0.80
2022-10-23T14:25:14.521Z,0.75
2022-10-23T14:27:41.756Z,0.82
2022-10-23T14:30:09.268Z,0.98
2022-10-23T14:32:36.473Z,0.73
2022-10-23T14:35:04.221Z,0.70
2022-10-23T14:37:32.121Z,0.60
2022-10-23T14:39:59.716Z,0.68
2022-10-23T14:42:34.018Z,0.70
2022-10-23T14:45:02.680Z,0.60
2022-10-23T14:47:30.128Z,0.65
2022-10-23T14:49:57.424Z,0.73
2022-10-23T14:52:25.077Z,0.60
2022-10-23T14:54:53.596Z,0.57
2022-10-23T14:57:22.233Z,0.90
2022-10-23T14:59:50.066Z,0.80
2022-10-23T15:02:17.680Z,0.80
2022-10-23T15:04:45.089Z,0.60
2022-10-23T15:07:12.361Z,0.60
2022-10-23T15:09:39.738Z,0.73
2022-10-23T15:12:07.601Z,1.02
2022-10-23T15:14:35.028Z,0.50
2022-10-23T15:17:02.945Z,0.90
2022-10-23T15:19:30.181Z,0.63
2022-10-23T15:21:57.404Z,0.77
2022-10-23T15:24:24.822Z,1.02
2022-10-23T15:26:52.106Z,0.85
2022-10-23T15:29:19.875Z,0.93
2022-10-23T15:31:48.968Z,0.80
2022-10-23T15:34:17.834Z,0.77
2022-10-23T15:36:46.830Z,0.80
2022-10-23T15:39:15.237Z,0.70
2022-10-23T15:41:43.435Z,0.90
2022-10-23T15:44:12.860Z,0.75
2022-10-23T15:46:40.203Z,0.77
2022-10-23T15:49:08.606Z,0.90
2022-10-23T15:51:37.002Z,0.60
2022-10-23T15:54:05.269Z,0.98
2022-10-23T15:56:32.560Z,0.98
2022-10-23T15:58:59.801Z,0.82
2022-10-23T16:01:27.297Z,1.05
2022-10-23T16:03:54.848Z,0.80
2022-10-23T16:06:23.695Z,0.90
2022-10-23T16:08:51.096Z,0.90
2022-10-23T16:11:26.248Z,0.75
2022-10-23T16:13:55.087Z,0.73
2022-10-23T16:16:22.517Z,0.65
2022-10-23T16:18:49.752Z,0.90
2022-10-23T16:21:24.815Z,0.70
2022-10-23T16:23:52.563Z,0.73
2022-10-23T16:26:19.800Z,0.80
2022-10-23T16:28:47.521Z,0.90
2022-10-23T16:31:20.517Z,0.98
2022-10-23T16:33:48.553Z,0.63
2022-10-23T16:36:16.243Z,0.60
2022-10-23T16:38:43.549Z,0.70
2022-10-23T16:41:10.873Z,0.70
2022-10-23T16:43:38.141Z,0.70
2022-10-23T16:46:12.157Z,0.60
2022-10-23T16:48:39.667Z,0.90
2022-10-23T16:51:07.804Z,0.52
2022-10-23T16:53:35.588Z,0.70
2022-10-23T16:56:04.461Z,0.60
2022-10-23T16:58:31.728Z,0.63
2022-10-23T17:01:03.883Z,0.63
2022-10-23T17:03:31.262Z,0.77
2022-10-23T17:06:03.417Z,0.63
2022-10-23T17:08:33.260Z,0.77
2022-10-23T17:11:19.249Z,0.65
2022-10-23T17:13:53.664Z,1.20
2022-10-23T17:16:25.948Z,1.70
2022-10-23T17:18:53.259Z,4.13
2022-10-23T17:21:21.401Z,2.50
2022-10-23T17:23:49.196Z,1.83
2022-10-23T17:26:18.240Z,1.58
2022-10-23T17:28:45.671Z,1.30
2022-10-23T17:31:24.234Z,1.38
2022-10-23T17:33:53.477Z,1.60
2022-10-23T17:36:21.435Z,1.40
2022-10-23T17:38:49.005Z,1.45
2022-10-23T17:41:17.682Z,1.80
2022-10-23T17:43:45.189Z,1.70
2022-10-23T17:46:13.152Z,2.42
2022-10-23T17:48:43.578Z,2.03
2022-10-23T17:51:12.332Z,2.50
2022-10-23T17:53:40.878Z,2.60
2022-10-23T17:56:09.663Z,2.22
2022-10-23T17:58:37.322Z,2.60
2022-10-23T18:01:08.243Z,2.53
2022-10-23T18:03:36.198Z,2.70
2022-10-23T18:06:25.856Z,2.00
2022-10-23T18:08:56.400Z,2.33
2022-10-23T18:11:45.473Z,2.08
2022-10-23T18:14:15.129Z,2.45
2022-10-23T18:16:42.485Z,2.35
2022-10-23T18:19:09.879Z,2.78
2022-10-23T18:21:37.974Z,2.10
2022-10-23T18:24:05.440Z,2.10
2022-10-23T18:26:35.233Z,2.60
2022-10-23T18:29:04.415Z,1.60
2022-10-23T18:31:31.770Z,1.90
2022-10-23T18:34:01.665Z,1.40
2022-10-23T18:36:30.510Z,1.85
2022-10-23T18:38:58.048Z,1.80
2022-10-23T18:41:25.884Z,1.60
2022-10-23T18:43:54.059Z,1.60
2022-10-23T18:46:22.195Z,1.77
2022-10-23T18:48:53.199Z,1.77
2022-10-23T18:51:21.842Z,1.73
2022-10-23T18:53:49.325Z,1.90
2022-10-23T18:56:21.973Z,1.85
2022-10-23T18:58:50.279Z,1.40
2022-10-23T19:01:18.107Z,1.05
2022-10-23T19:03:45.596Z,1.00
2022-10-23T19:06:12.956Z,0.77
2022-10-23T19:08:40.856Z,0.88
2022-10-23T19:11:08.824Z,0.90
2022-10-23T19:13:40.522Z,0.70
2022-10-23T19:16:09.483Z,0.95
2022-10-23T19:18:39.053Z,1.27
2022-10-23T19:21:06.872Z,0.90
2022-10-23T19:23:36.465Z,1.30
2022-10-23T19:26:09.131Z,0.90
2022-10-23T19:28:42.356Z,1.02
2022-10-23T19:31:10.550Z,0.90
2022-10-23T19:33:38.980Z,1.08
2022-10-23T19:36:11.206Z,1.30
2022-10-23T19:38:41.532Z,1.38
2022-10-23T19:41:09.140Z,1.30
2022-10-23T19:43:37.868Z,1.30
2022-10-23T19:46:09.373Z,1.05
2022-10-23T19:48:42.393Z,1.00
2022-10-23T19:51:09.753Z,0.85
2022-10-23T19:53:37.180Z,0.88
2022-10-23T19:56:05.651Z,0.60
2022-10-23T19:58:33.595Z,0.60
2022-10-23T20:01:07.297Z,0.50
2022-10-23T20:03:34.731Z,0.50
2022-10-23T20:06:02.077Z,0.35
2022-10-23T20:08:32.675Z,0.50
2022-10-23T20:11:02.386Z,0.30
2022-10-23T20:13:29.679Z,0.40
2022-10-23T20:15:56.930Z,0.43
2022-10-23T20:18:24.230Z,0.40
2022-10-23T20:20:51.440Z,0.35
2022-10-23T20:23:18.829Z,0.40
2022-10-23T20:25:46.086Z,0.40
2022-10-23T20:28:15.117Z,0.40
2022-10-23T20:30:44.453Z,0.50
2022-10-23T20:33:11.773Z,0.30
2022-10-23T20:35:42.751Z,0.40
2022-10-23T20:38:10.228Z,0.30
2022-10-23T20:40:37.433Z,0.40
2022-10-23T20:43:04.674Z,0.35
2022-10-23T20:45:31.876Z,0.50
2022-10-23T20:47:59.144Z,0.20
2022-10-23T20:50:26.513Z,0.52
2022-10-23T20:52:53.722Z,0.80
2022-10-23T20:55:21.027Z,1.40
2022-10-23T20:57:48.282Z,1.45
2022-10-23T21:00:15.772Z,1.20
2022-10-23T21:02:45.997Z,1.30
2022-10-23T21:05:16.084Z,1.15
2022-10-23T21:07:43.256Z,0.90
2022-10-23T21:10:10.594Z,1.00
2022-10-23T21:12:37.846Z,0.85
2022-10-23T21:15:05.251Z,0.70
2022-10-23T21:17:36.019Z,0.70
2022-10-23T21:20:03.529Z,1.10
2022-10-23T21:22:30.757Z,0.75
2022-10-23T21:25:00.100Z,0.60
2022-10-23T21:27:27.413Z,0.43
2022-10-23T21:29:54.623Z,0.45
2022-10-23T21:32:21.863Z,0.52
2022-10-23T21:34:49.143Z,0.40
2022-10-23T21:37:16.353Z,0.38
2022-10-23T21:39:44.571Z,0.30
2022-10-23T21:42:12.447Z,0.20
2022-10-23T21:44:39.739Z,0.40
2022-10-23T21:47:07.596Z,0.20
2022-10-23T21:49:34.871Z,0.40
2022-10-23T21:52:02.135Z,0.30
2022-10-23T21:54:29.385Z,0.43
2022-10-23T21:56:56.615Z,0.60
2022-10-23T21:59:30.038Z,0.50
2022-10-23T22:01:59.032Z,0.32
2022-10-23T22:04:26.596Z,0.40
2022-10-23T22:06:54.054Z,0.40
2022-10-23T22:09:22.066Z,0.30
2022-10-23T22:11:50.374Z,0.30
2022-10-23T22:14:17.696Z,0.22
2022-10-23T22:16:44.956Z,0.30
2022-10-23T22:19:13.448Z,0.22
2022-10-23T22:21:41.216Z,0.20
2022-10-23T22:24:09.202Z,0.63
2022-10-23T22:26:37.895Z,0.30
2022-10-23T22:29:07.226Z,0.60
2022-10-23T22:31:35.518Z,0.50
2022-10-23T22:34:13.322Z,0.30
2022-10-23T22:36:51.928Z,0.50
2022-10-23T22:39:19.201Z,0.38
2022-10-23T22:41:47.579Z,0.30
2022-10-23T22:44:15.221Z,0.30
2022-10-23T22:46:42.664Z,0.40
2022-10-23T22:49:09.983Z,0.50
2022-10-23T22:51:39.176Z,0.20
2022-10-23T22:54:06.718Z,0.40
2022-10-23T22:56:34.188Z,0.50
2022-10-23T22:59:01.382Z,0.30
2022-10-23T23:01:36.729Z,0.20
2022-10-23T23:04:14.007Z,0.20
2022-10-23T23:06:46.864Z,0.30
2022-10-23T23:09:17.841Z,0.20
2022-10-23T23:11:51.727Z,0.30
2022-10-23T23:14:23.050Z,0.22
2022-10-23T23:16:51.770Z,0.20
2022-10-23T23:19:19.195Z,0.20
2022-10-23T23:21:46.617Z,0.28
2022-10-23T23:24:16.973Z,0.30
2022-10-23T23:26:44.206Z,0.40
2022-10-23T23:29:11.570Z,0.30
2022-10-23T23:31:38.759Z,0.30
2022-10-23T23:34:05.984Z,0.57
2022-10-23T23:36:33.876Z,0.22
2022-10-23T23:39:01.562Z,0.20
2022-10-23T23:41:29.582Z,0.30
2022-10-23T23:43:57.764Z,0.40
2022-10-23T23:46:25.419Z,0.47
2022-10-23T23:48:52.620Z,0.50
2022-10-23T23:51:21.519Z,0.40
2022-10-23T23:53:49.489Z,0.30
2022-10-23T23:56:17.122Z,0.20
2022-10-23T23:58:44.315Z,0.30
